createdAt,value
2023-02-06T00:01:48.338Z,30.67
2023-02-06T00:04:14.941Z,24.87
2023-02-06T00:06:41.713Z,25.73
2023-02-06T00:09:08.326Z,22.87
2023-02-06T00:11:34.957Z,25.77
2023-02-06T00:14:01.524Z,26.83
2023-02-06T00:16:28.975Z,25.10
2023-02-06T00:18:55.755Z,22.60
2023-02-06T00:21:24.637Z,18.10
2023-02-06T00:26:35.887Z,23.87
2023-02-06T00:31:46.651Z,21.93
2023-02-06T00:34:13.258Z,21.33
2023-02-06T00:36:39.908Z,23.03
2023-02-06T00:39:07.717Z,20.33
2023-02-06T00:41:34.633Z,22.23
2023-02-06T00:44:01.215Z,21.80
2023-02-06T00:46:27.865Z,18.13
2023-02-06T00:48:54.526Z,16.33
2023-02-06T00:51:21.138Z,27.63
2023-02-06T00:53:50.142Z,24.83
2023-02-06T00:59:01.606Z,24.43
2023-02-06T01:01:28.490Z,24.40
2023-02-06T01:03:55.202Z,23.70
2023-02-06T01:06:21.856Z,21.30
2023-02-06T01:08:50.809Z,19.47
2023-02-06T01:11:19.307Z,20.93
2023-02-06T01:13:45.981Z,28.80
2023-02-06T01:16:14.903Z,20.13
2023-02-06T01:18:41.657Z,20.40
2023-02-06T01:21:11.731Z,22.13
2023-02-06T01:26:24.479Z,25.80
2023-02-06T01:31:35.311Z,19.10
2023-02-06T01:36:48.494Z,21.00
2023-02-06T01:42:00.455Z,21.13
2023-02-06T02:16:39.541Z,12.13
2023-02-06T02:19:21.276Z,13.60
2023-02-06T02:22:03.902Z,15.33
2023-02-06T02:24:31.903Z,13.47
2023-02-06T02:26:58.519Z,13.83
2023-02-06T02:32:48.442Z,8.57
2023-02-06T02:35:36.896Z,16.63
2023-02-06T02:38:30.090Z,9.77
2023-02-06T02:44:09.278Z,15.60
2023-02-06T02:46:37.285Z,13.43
2023-02-06T02:49:04.955Z,13.80
2023-02-06T02:51:32.704Z,12.60
2023-02-06T02:56:43.759Z,13.23
2023-02-06T02:59:24.227Z,14.17
2023-02-06T03:01:59.199Z,10.13
2023-02-06T03:07:12.557Z,14.30
2023-02-06T03:09:44.251Z,14.77
2023-02-06T03:12:31.850Z,14.67
2023-02-06T03:17:46.602Z,14.87
2023-02-06T03:20:13.753Z,15.02
2023-02-06T03:22:40.362Z,16.20
2023-02-06T03:25:08.018Z,15.13
2023-02-06T03:27:34.758Z,11.20
2023-02-06T03:30:01.318Z,9.63
2023-02-06T03:32:29.789Z,9.40
2023-02-06T03:35:07.397Z,9.57
2023-02-06T03:37:34.155Z,13.13
2023-02-06T03:40:00.849Z,10.67
2023-02-06T03:42:28.453Z,8.33
2023-02-06T03:44:56.670Z,11.63
2023-02-06T03:47:23.338Z,12.80
2023-02-06T03:52:36.771Z,11.77
2023-02-06T03:55:06.443Z,7.03
2023-02-06T03:57:33.109Z,12.53
2023-02-06T03:59:59.671Z,10.10
2023-02-06T04:02:26.693Z,10.63
2023-02-06T04:04:53.349Z,13.93
2023-02-06T04:07:22.006Z,8.23
2023-02-06T04:09:48.695Z,9.47
2023-02-06T04:12:15.581Z,9.60
2023-02-06T04:14:42.587Z,9.47
2023-02-06T04:17:09.371Z,10.80
2023-02-06T04:19:36.011Z,8.87
2023-02-06T04:22:02.631Z,6.27
2023-02-06T04:27:13.851Z,10.83
2023-02-06T04:32:24.513Z,10.57
2023-02-06T04:37:35.421Z,7.77
2023-02-06T04:40:01.988Z,9.77
2023-02-06T04:42:28.651Z,11.33
2023-02-06T04:44:55.265Z,11.17
2023-02-06T04:47:21.927Z,11.07
2023-02-06T04:49:48.447Z,11.77
2023-02-06T04:52:15.057Z,7.23
2023-02-06T04:54:41.648Z,14.37
2023-02-06T04:57:08.225Z,14.10
2023-02-06T04:59:34.752Z,11.90
2023-02-06T05:04:45.484Z,12.57
2023-02-06T05:07:12.083Z,10.77
2023-02-06T05:09:38.763Z,16.53
2023-02-06T05:12:05.368Z,12.97
2023-02-06T05:14:32.056Z,12.83
2023-02-06T05:16:58.602Z,11.67
2023-02-06T05:19:25.214Z,14.67
2023-02-06T05:24:35.756Z,10.60
2023-02-06T05:29:46.718Z,13.30
2023-02-06T05:34:57.598Z,14.20
2023-02-06T05:37:24.168Z,13.00
2023-02-06T05:39:50.763Z,14.77
2023-02-06T05:42:17.302Z,16.30
2023-02-06T05:44:43.985Z,13.30
2023-02-06T05:47:10.532Z,14.53
2023-02-06T05:49:37.098Z,15.47
2023-02-06T05:52:03.718Z,14.60
2023-02-06T05:54:30.408Z,12.77
2023-02-06T05:56:59.810Z,12.50
2023-02-06T05:59:26.514Z,15.20
2023-02-06T06:01:53.065Z,13.93
2023-02-06T06:04:19.747Z,11.07
2023-02-06T06:06:46.381Z,16.20
2023-02-06T06:09:13.051Z,15.67
2023-02-06T06:11:39.609Z,16.80
2023-02-06T06:16:50.062Z,14.50
2023-02-06T06:19:17.070Z,12.87
2023-02-06T06:21:43.814Z,15.60
2023-02-06T06:24:10.370Z,16.20
2023-02-06T06:29:21.934Z,17.67
2023-02-06T06:31:48.583Z,8.87
2023-02-06T06:34:15.219Z,15.57
2023-02-06T06:36:41.759Z,16.93
2023-02-06T06:39:08.359Z,18.27
2023-02-06T06:41:34.887Z,17.53
2023-02-06T06:44:01.643Z,15.43
2023-02-06T06:46:28.287Z,16.00
2023-02-06T06:48:54.914Z,16.83
2023-02-06T06:51:21.535Z,12.30
2023-02-06T06:53:48.269Z,10.93
2023-02-06T06:56:14.934Z,13.00
2023-02-06T06:58:41.674Z,15.70
2023-02-06T07:01:08.746Z,13.10
2023-02-06T07:03:35.541Z,13.03
2023-02-06T07:06:02.186Z,16.37
2023-02-06T07:08:31.660Z,15.90
2023-02-06T07:10:58.352Z,18.50
2023-02-06T07:13:25.078Z,15.30
2023-02-06T07:15:51.670Z,13.57
2023-02-06T07:18:18.279Z,13.50
2023-02-06T07:20:44.857Z,14.70
2023-02-06T07:23:11.488Z,16.20
2023-02-06T07:25:38.335Z,14.80
2023-02-06T07:28:05.177Z,16.47
2023-02-06T07:30:31.912Z,13.60
2023-02-06T07:32:58.574Z,14.57
2023-02-06T07:35:25.137Z,14.93
2023-02-06T07:37:54.823Z,16.57
2023-02-06T07:40:21.500Z,17.57
2023-02-06T07:42:48.134Z,14.87
2023-02-06T07:45:21.257Z,17.37
2023-02-06T07:47:52.056Z,14.33
2023-02-06T07:50:18.742Z,18.77
2023-02-06T07:55:29.683Z,20.03
2023-02-06T07:57:56.446Z,19.27
2023-02-06T08:00:23.229Z,21.63
2023-02-06T08:02:49.778Z,22.17
2023-02-06T08:05:16.540Z,18.00
2023-02-06T08:07:43.089Z,22.50
2023-02-06T08:10:09.841Z,17.57
2023-02-06T08:12:36.441Z,16.87
2023-02-06T08:15:03.879Z,19.67
2023-02-06T08:17:30.442Z,14.43
2023-02-06T08:19:57.121Z,14.20
2023-02-06T08:22:23.707Z,13.90
2023-02-06T08:24:50.334Z,12.20
2023-02-06T08:27:16.962Z,13.83
2023-02-06T08:29:44.420Z,16.60
2023-02-06T08:32:11.329Z,15.63
2023-02-06T08:34:41.665Z,14.93
2023-02-06T08:37:08.570Z,14.83
2023-02-06T08:39:35.378Z,18.70
2023-02-06T08:42:02.095Z,14.50
2023-02-06T08:44:28.962Z,15.33
2023-02-06T08:47:08.915Z,14.97
2023-02-06T08:49:37.190Z,13.87
2023-02-06T08:52:04.089Z,15.90
2023-02-06T08:54:31.457Z,15.90
2023-02-06T08:57:01.087Z,14.63
2023-02-06T08:59:29.464Z,16.97
2023-02-06T09:01:56.202Z,15.53
2023-02-06T09:04:23.106Z,14.10
2023-02-06T09:06:50.618Z,15.00
2023-02-06T09:09:18.069Z,13.73
2023-02-06T09:11:44.918Z,14.67
2023-02-06T09:14:15.100Z,15.63
2023-02-06T09:16:42.060Z,15.03
2023-02-06T09:19:09.856Z,16.50
2023-02-06T09:21:37.033Z,16.40
2023-02-06T09:24:05.210Z,16.37
2023-02-06T09:26:33.609Z,14.07
2023-02-06T09:29:01.043Z,12.43
2023-02-06T09:31:29.087Z,15.57
2023-02-06T09:36:40.772Z,13.07
2023-02-06T09:39:07.833Z,15.13
2023-02-06T09:41:40.608Z,15.57
2023-02-06T09:44:27.544Z,16.30
2023-02-06T09:46:58.367Z,12.00
2023-02-06T09:49:30.648Z,18.27
2023-02-06T09:52:09.299Z,13.90
2023-02-06T09:57:35.587Z,16.27
2023-02-06T10:00:21.083Z,13.40
2023-02-06T10:02:59.707Z,13.97
2023-02-06T10:08:30.314Z,14.13
2023-02-06T10:10:58.566Z,13.70
2023-02-06T10:13:28.303Z,12.57
2023-02-06T10:15:59.787Z,14.37
2023-02-06T10:18:38.610Z,15.33
2023-02-06T10:21:14.512Z,14.10
2023-02-06T10:23:46.044Z,14.80
2023-02-06T10:26:18.455Z,14.30
2023-02-06T10:28:48.107Z,16.43
2023-02-06T10:31:17.905Z,17.73
2023-02-06T10:33:54.911Z,19.27
2023-02-06T10:36:34.086Z,17.70
2023-02-06T10:39:01.508Z,14.93
2023-02-06T10:41:51.197Z,13.30
2023-02-06T10:44:27.381Z,14.50
2023-02-06T10:46:54.225Z,12.70
2023-02-06T10:49:27.884Z,14.60
2023-02-06T10:51:56.254Z,17.43
2023-02-06T10:54:31.600Z,13.17
2023-02-06T10:56:58.567Z,16.23
2023-02-06T10:59:28.288Z,14.80
2023-02-06T11:02:10.110Z,14.07
2023-02-06T11:04:40.693Z,16.13
2023-02-06T11:07:09.033Z,12.30
2023-02-06T11:09:36.299Z,17.37
2023-02-06T11:12:03.131Z,15.03
2023-02-06T11:14:33.743Z,16.37
2023-02-06T11:17:00.497Z,15.77
2023-02-06T11:19:32.434Z,14.97
2023-02-06T11:22:06.363Z,15.47
2023-02-06T11:24:33.107Z,13.27
2023-02-06T11:27:03.188Z,14.03
2023-02-06T11:32:37.919Z,13.30
2023-02-06T11:37:52.067Z,14.63
2023-02-06T11:43:19.457Z,16.90
2023-02-06T11:45:47.397Z,17.13
2023-02-06T11:48:34.002Z,15.80
2023-02-06T11:51:00.795Z,14.70
2023-02-06T11:53:27.440Z,15.03
2023-02-06T11:56:14.071Z,13.33
2023-02-06T11:58:40.939Z,17.37
2023-02-06T12:01:09.567Z,11.90
2023-02-06T12:03:37.493Z,11.43
2023-02-06T12:06:08.928Z,15.40
2023-02-06T12:08:38.732Z,13.27
2023-02-06T12:11:05.936Z,13.90
2023-02-06T12:13:37.935Z,15.93
2023-02-06T12:16:05.417Z,15.43
2023-02-06T12:18:35.833Z,15.13
2023-02-06T12:21:08.983Z,17.40
2023-02-06T12:23:37.866Z,18.83
2023-02-06T12:26:05.525Z,15.57
2023-02-06T12:28:38.095Z,16.80
2023-02-06T12:31:09.295Z,17.93
2023-02-06T12:33:55.267Z,15.63
2023-02-06T12:36:25.765Z,15.63
2023-02-06T12:39:05.436Z,16.50
2023-02-06T12:41:34.914Z,16.43
2023-02-06T12:44:20.835Z,17.27
2023-02-06T12:46:50.031Z,18.37
2023-02-06T12:49:19.398Z,20.60
2023-02-06T12:52:05.528Z,19.10
2023-02-06T12:54:32.208Z,18.53
2023-02-06T12:57:05.455Z,20.23
2023-02-06T12:59:46.196Z,23.17
2023-02-06T13:02:26.109Z,25.87
2023-02-06T13:04:52.857Z,31.87
2023-02-06T13:07:20.187Z,20.87
2023-02-06T13:12:40.346Z,20.33
2023-02-06T13:17:51.771Z,16.73
2023-02-06T13:20:19.553Z,18.57
2023-02-06T13:22:46.473Z,19.73
2023-02-06T13:28:25.736Z,15.23
2023-02-06T13:30:59.708Z,14.53
2023-02-06T13:33:27.226Z,14.43
2023-02-06T13:36:00.645Z,14.90
2023-02-06T13:38:28.799Z,17.40
2023-02-06T13:41:16.820Z,15.73
2023-02-06T13:43:46.359Z,16.97
2023-02-06T13:46:14.072Z,15.97
2023-02-06T13:48:58.866Z,16.90
2023-02-06T13:51:25.638Z,18.83
2023-02-06T13:53:52.242Z,20.10
2023-02-06T13:56:28.007Z,16.20
2023-02-06T13:58:54.998Z,13.40
2023-02-06T14:01:26.109Z,15.50
2023-02-06T14:06:37.152Z,14.37
2023-02-06T14:09:04.225Z,13.53
2023-02-06T14:11:40.350Z,13.10
2023-02-06T14:17:05.597Z,12.70
2023-02-06T14:19:51.797Z,12.17
2023-02-06T14:22:28.068Z,11.53
2023-02-06T14:25:13.384Z,10.53
2023-02-06T14:28:06.556Z,12.83
2023-02-06T14:30:44.898Z,12.87
2023-02-06T14:33:29.882Z,11.57
2023-02-06T14:35:59.558Z,10.77
2023-02-06T14:38:32.234Z,11.03
2023-02-06T14:40:59.541Z,8.63
2023-02-06T14:43:27.264Z,10.17
2023-02-06T14:46:06.239Z,10.17
2023-02-06T14:48:41.248Z,10.30
2023-02-06T14:51:08.250Z,12.20
2023-02-06T14:53:38.871Z,11.00
2023-02-06T14:56:09.668Z,11.80
2023-02-06T14:58:36.636Z,9.87
2023-02-06T15:01:13.975Z,14.83
2023-02-06T15:03:41.966Z,11.17
2023-02-06T15:06:10.332Z,13.10
2023-02-06T15:08:39.101Z,13.47
2023-02-06T15:11:06.461Z,15.80
2023-02-06T15:13:37.609Z,15.93
2023-02-06T15:18:49.843Z,13.27
2023-02-06T15:21:17.274Z,18.07
2023-02-06T15:23:51.047Z,17.10
2023-02-06T15:29:15.797Z,16.17
2023-02-06T15:34:30.898Z,26.97
2023-02-06T15:36:57.811Z,21.20
2023-02-06T15:39:24.507Z,18.60
2023-02-06T15:41:51.553Z,19.63
2023-02-06T15:44:26.340Z,25.83
2023-02-06T15:46:55.319Z,21.57
2023-02-06T15:52:33.480Z,22.03
2023-02-06T15:55:00.215Z,23.10
2023-02-06T15:57:31.640Z,19.07
2023-02-06T15:59:58.420Z,21.27
2023-02-06T16:05:24.225Z,10.30
2023-02-06T16:07:51.364Z,14.23
2023-02-06T16:10:36.889Z,15.43
2023-02-06T16:13:08.574Z,15.17
2023-02-06T16:15:36.781Z,14.80
2023-02-06T16:21:16.645Z,14.50
2023-02-06T16:23:47.020Z,13.80
2023-02-06T16:26:29.437Z,14.27
2023-02-06T16:28:56.586Z,15.37
2023-02-06T16:31:24.161Z,14.60
2023-02-06T16:33:51.552Z,19.53
2023-02-06T16:36:22.075Z,21.43
2023-02-06T16:39:03.757Z,17.27
2023-02-06T16:41:33.599Z,15.73
2023-02-06T16:44:00.309Z,15.63
2023-02-06T16:46:27.729Z,15.93
2023-02-06T16:48:55.135Z,15.97
2023-02-06T16:51:23.096Z,24.57
2023-02-06T16:53:49.908Z,25.20
2023-02-06T16:56:16.967Z,25.03
2023-02-06T16:58:43.762Z,24.27
2023-02-06T17:01:23.171Z,26.97
2023-02-06T17:03:50.147Z,23.60
2023-02-06T17:06:18.987Z,35.07
2023-02-06T17:08:45.744Z,19.83
2023-02-06T17:11:13.663Z,14.97
2023-02-06T17:13:40.351Z,15.13
2023-02-06T17:16:07.044Z,16.53
2023-02-06T17:18:33.741Z,18.10
2023-02-06T17:21:00.322Z,19.70
2023-02-06T17:23:27.143Z,25.27
2023-02-06T17:25:54.054Z,29.73
2023-02-06T17:28:20.809Z,34.57
2023-02-06T17:30:49.079Z,36.03
2023-02-06T17:33:16.098Z,26.57
2023-02-06T17:35:42.747Z,28.23
2023-02-06T17:38:09.544Z,25.73
2023-02-06T17:40:36.875Z,24.60
2023-02-06T17:43:04.830Z,24.37
2023-02-06T17:45:32.049Z,22.27
2023-02-06T17:47:58.908Z,20.87
2023-02-06T17:50:26.990Z,22.50
2023-02-06T17:52:55.746Z,20.30
2023-02-06T17:55:25.923Z,24.77
2023-02-06T17:57:52.852Z,23.63
2023-02-06T18:00:20.352Z,25.60
2023-02-06T18:02:47.160Z,24.80
2023-02-06T18:05:13.970Z,28.93
2023-02-06T18:07:40.839Z,29.07
2023-02-06T18:10:07.678Z,28.83
2023-02-06T18:12:34.535Z,21.13
2023-02-06T18:15:02.509Z,23.07
2023-02-06T18:17:29.329Z,22.30
2023-02-06T18:19:56.033Z,21.17
2023-02-06T18:22:22.995Z,22.80
2023-02-06T18:24:49.873Z,23.70
2023-02-06T18:27:16.820Z,16.33
2023-02-06T18:32:29.226Z,8.00
2023-02-06T18:37:40.345Z,14.23
2023-02-06T18:40:07.182Z,10.30
2023-02-06T18:42:53.512Z,7.87
2023-02-06T18:45:23.690Z,10.97
2023-02-06T18:47:52.987Z,8.83
2023-02-06T18:50:24.233Z,13.57
2023-02-06T18:52:51.161Z,15.27
2023-02-06T18:55:17.801Z,13.37
2023-02-06T18:57:44.562Z,16.40
2023-02-06T19:00:12.105Z,44.53
2023-02-06T19:02:38.768Z,26.00
2023-02-06T19:05:05.569Z,15.47
2023-02-06T19:07:32.523Z,25.63
2023-02-06T19:09:59.637Z,39.43
2023-02-06T19:12:29.617Z,30.50
2023-02-06T19:14:56.758Z,72.63
2023-02-06T19:17:24.061Z,23.63
2023-02-06T19:19:50.762Z,33.20
2023-02-06T19:22:17.578Z,48.40
2023-02-06T19:24:44.590Z,28.50
2023-02-06T19:27:11.917Z,11.50
2023-02-06T19:29:38.949Z,11.07
2023-02-06T19:32:11.073Z,10.27
2023-02-06T19:34:38.542Z,11.07
2023-02-06T19:37:05.719Z,11.97
2023-02-06T19:39:34.394Z,27.43
2023-02-06T19:42:01.893Z,24.40
2023-02-06T19:44:29.930Z,19.00
2023-02-06T19:46:57.240Z,17.83
2023-02-06T19:49:25.034Z,12.33
2023-02-06T19:51:52.289Z,13.23
2023-02-06T19:54:19.153Z,13.67
2023-02-06T19:56:46.865Z,13.03
2023-02-06T20:02:02.682Z,19.80
2023-02-06T20:04:31.382Z,24.20
2023-02-06T20:06:59.256Z,39.73
2023-02-06T20:09:27.117Z,33.50
2023-02-06T20:11:56.477Z,32.27
2023-02-06T20:14:24.909Z,28.93
2023-02-06T20:16:51.893Z,19.20
2023-02-06T20:19:22.000Z,19.87
2023-02-06T20:21:53.229Z,12.57
2023-02-06T20:24:22.251Z,9.73
2023-02-06T20:26:50.464Z,11.40
2023-02-06T20:29:24.736Z,18.07
2023-02-06T20:31:52.009Z,19.80
2023-02-06T20:34:18.971Z,24.37
2023-02-06T20:36:47.305Z,25.33
2023-02-06T20:39:14.540Z,37.13
2023-02-06T20:41:41.514Z,29.53
2023-02-06T20:44:08.260Z,20.53
2023-02-06T20:46:35.175Z,11.57
2023-02-06T20:49:02.600Z,12.23
2023-02-06T20:54:14.156Z,12.20
2023-02-06T20:56:42.241Z,9.07
2023-02-06T20:59:10.268Z,7.87
2023-02-06T21:01:36.951Z,12.47
2023-02-06T21:04:05.681Z,12.77
2023-02-06T21:06:33.599Z,11.40
2023-02-06T21:09:01.184Z,15.10
2023-02-06T21:11:29.588Z,10.47
2023-02-06T21:13:57.505Z,10.17
2023-02-06T21:16:24.273Z,23.40
2023-02-06T21:21:37.699Z,14.10
2023-02-06T21:24:04.767Z,13.50
2023-02-06T21:26:31.767Z,9.47
2023-02-06T21:28:58.893Z,10.60
2023-02-06T21:31:34.169Z,13.53
2023-02-06T21:34:05.211Z,13.13
2023-02-06T21:36:31.906Z,10.53
2023-02-06T21:38:59.904Z,12.20
2023-02-06T21:41:26.985Z,9.43
2023-02-06T21:43:53.755Z,9.30
2023-02-06T21:46:20.565Z,11.63
2023-02-06T21:48:50.830Z,15.33
2023-02-06T21:51:17.502Z,9.53
2023-02-06T21:56:28.979Z,9.97
2023-02-06T21:58:56.954Z,4.53
2023-02-06T22:01:27.346Z,6.30
2023-02-06T22:03:54.110Z,6.50
2023-02-06T22:09:07.726Z,7.43
2023-02-06T22:11:37.669Z,8.10
2023-02-06T22:14:05.331Z,8.13
2023-02-06T22:16:32.041Z,6.23
2023-02-06T22:19:00.717Z,4.77
2023-02-06T22:21:27.922Z,8.20
2023-02-06T22:23:58.070Z,8.33
2023-02-06T22:26:25.693Z,5.37
2023-02-06T22:28:52.365Z,6.73
2023-02-06T22:31:20.037Z,5.97
2023-02-06T22:33:46.802Z,9.20
2023-02-06T22:36:14.308Z,6.57
2023-02-06T22:38:41.164Z,8.80
2023-02-06T22:41:08.866Z,3.83
2023-02-06T22:43:36.516Z,4.90
2023-02-06T22:46:03.245Z,8.13
2023-02-06T22:48:29.852Z,6.40
2023-02-06T22:50:56.511Z,7.70
2023-02-06T22:53:32.155Z,6.17
2023-02-06T22:56:23.893Z,9.17
2023-02-06T22:58:50.610Z,5.30
2023-02-06T23:01:17.695Z,5.77
2023-02-06T23:03:44.396Z,7.63
2023-02-06T23:06:11.684Z,6.80
2023-02-06T23:08:38.333Z,6.23
2023-02-06T23:11:05.148Z,9.70
2023-02-06T23:16:16.047Z,6.07
2023-02-06T23:18:44.100Z,4.90
2023-02-06T23:21:12.042Z,9.80
2023-02-06T23:23:38.796Z,6.33
2023-02-06T23:28:53.336Z,7.57
2023-02-06T23:34:04.361Z,6.93
2023-02-06T23:39:15.065Z,6.43
2023-02-06T23:41:41.700Z,6.37
2023-02-06T23:44:08.605Z,6.83
2023-02-06T23:46:36.246Z,5.33
2023-02-06T23:49:02.922Z,9.97
2023-02-06T23:51:30.111Z,5.10
2023-02-06T23:53:56.864Z,7.00
2023-02-06T23:56:24.248Z,5.57
2023-02-06T23:58:50.863Z,5.47
